Terminal Aerodrome Forecast
Issued by NWS

Home | Current Version | Previous Version | Text Only | Print | Product List | Glossary On
Versions: 1 2 3 4 5 6 7 8 9 10 11 12 13 14 15 16 17 18 19 20 21 22 23 24 25 26 27 28 29 30 31 32 33 34 35 36 37 38 39 40 41 42 43 44 45 46 47 48 49 50
000
FTUS43 KMKX 302337
TAFUES
TAF
KUES 302337Z 3100/3124 06004KT P6SM SCT050 OVC100
     FM310300 13005KT P6SM BKN100
     FM310800 02006KT 5SM BR BKN015
     FM311500 33004KT P6SM SCT030
     FM311800 31008KT P6SM SCT035=

USA.gov is the U.S. government's official web portal to all federal, state and local government web resources and services.